Time;durP1;ratioP1;P1;durP2;ratioP2;P2;SDS_P1;SDS_P2;PMS_P1;PMS_P2;Temp;Humidity;BMP_temperature;BMP_pressure;BME280_temperature;BME280_humidity;BME280_pressure;Samples;Min_cycle;Max_cycle;Signal;HPM_P1;HPM_P2
2022/09/15 00:00:11;;;;;;;842.67;788.67;;;;;;;20.89;63.51;99275.06;349258;28;1236;-79
2022/09/15 00:00:22;;;;;;;837.15;783.45;;;;;;;20.87;63.54;99274.38;350404;28;1295;-79
2022/09/15 00:00:32;;;;;;;834.47;780.83;;;;;;;20.86;63.55;99278.84;347732;28;941;-79
2022/09/15 00:00:43;;;;;;;834.05;780.25;;;;;;;20.84;63.81;99278.13;346662;28;1057;-79
2022/09/15 00:00:53;;;;;;;837.47;783.37;;;;;;;20.82;63.60;99266.78;345058;28;797;-79
2022/09/15 00:01:04;;;;;;;838.42;784.28;;;;;;;20.82;63.62;99276.59;344989;28;840;-79
2022/09/15 00:01:14;;;;;;;838.78;784.67;;;;;;;20.83;63.30;99278.28;347614;28;1241;-80
2022/09/15 00:01:25;;;;;;;838.63;784.67;;;;;;;20.85;63.52;99277.16;348819;28;875;-79
2022/09/15 00:01:36;;;;;;;835.10;781.28;;;;;;;20.85;63.46;99277.16;348128;28;1452;-79
2022/09/15 00:01:46;;;;;;;837.00;783.00;;;;;;;20.82;63.53;99276.59;348948;28;1343;-80
2022/09/15 00:01:56;;;;;;;838.97;784.77;;;;;;;20.81;63.96;99278.41;348825;28;1334;-80
2022/09/15 00:02:09;;;;;;;842.63;788.13;;;;;;;20.82;63.50;99277.44;348612;28;982;-79
2022/09/15 00:02:19;;;;;;;844.60;790.05;;;;;;;20.81;63.29;99281.06;346200;28;1473;-79
2022/09/15 00:02:30;;;;;;;840.13;786.03;;;;;;;20.80;63.71;99279.38;348887;28;1249;-80
2022/09/15 00:02:40;;;;;;;838.35;784.28;;;;;;;20.77;63.92;99274.38;347450;28;1275;-80
2022/09/15 00:02:51;;;;;;;836.90;782.83;;;;;;;20.79;63.67;99283.06;347984;28;910;-79
2022/09/15 00:03:01;;;;;;;840.38;786.13;;;;;;;20.79;63.87;99282.22;348773;28;1264;-79
2022/09/15 00:03:12;;;;;;;841.17;786.90;;;;;;;20.78;63.59;99281.38;348815;28;1251;-79
2022/09/15 00:03:22;;;;;;;843.85;789.38;;;;;;;20.79;63.86;99277.75;349143;28;1238;-79
2022/09/15 00:03:33;;;;;;;844.20;789.60;;;;;;;20.77;63.97;99279.69;346353;28;1186;-79
2022/09/15 00:03:43;;;;;;;846.60;792.00;;;;;;;20.77;63.78;99282.34;345366;28;1227;-79
2022/09/15 00:03:54;;;;;;;844.97;790.47;;;;;;;20.77;63.78;99285.00;345402;28;1197;-79
2022/09/15 00:04:04;;;;;;;846.80;792.38;;;;;;;20.78;63.75;99285.84;347347;28;1408;-79
2022/09/15 00:04:15;;;;;;;846.23;791.77;;;;;;;20.79;63.48;99279.56;344668;28;1401;-80
2022/09/15 00:04:25;;;;;;;852.38;797.90;;;;;;;20.79;63.35;99272.41;344660;28;1217;-80
2022/09/15 00:04:35;;;;;;;849.00;794.70;;;;;;;20.77;63.89;99274.38;343308;28;1206;-79
2022/09/15 00:04:46;;;;;;;847.80;793.47;;;;;;;20.80;63.77;99278.53;344556;28;1191;-79
2022/09/15 00:04:56;;;;;;;847.97;793.50;;;;;;;20.77;63.80;99268.22;341624;28;1363;-79
2022/09/15 00:05:07;;;;;;;844.50;790.08;;;;;;;20.78;63.51;99273.38;344410;28;1250;-79
2022/09/15 00:05:17;;;;;;;843.33;788.83;;;;;;;20.79;63.40;99275.06;342859;28;1169;-79
2022/09/15 00:05:28;;;;;;;837.15;782.83;;;;;;;20.77;63.37;99274.38;340992;29;1331;-79
2022/09/15 00:05:38;;;;;;;839.27;784.87;;;;;;;20.79;63.58;99275.06;339217;29;1253;-79
2022/09/15 00:05:49;;;;;;;834.90;780.90;;;;;;;20.77;63.34;99266.38;340351;28;1223;-79
2022/09/15 00:05:59;;;;;;;830.80;777.03;;;;;;;20.79;63.60;99280.41;343486;28;1195;-79
2022/09/15 00:06:10;;;;;;;824.67;770.90;;;;;;;20.79;63.63;99274.22;342624;28;1376;-79
2022/09/15 00:06:20;;;;;;;826.05;772.22;;;;;;;20.79;63.80;99277.75;338855;29;1319;-79
2022/09/15 00:06:31;;;;;;;833.20;779.10;;;;;;;20.81;63.49;99281.06;341710;28;2147;-79
2022/09/15 00:06:42;;;;;;;841.30;787.10;;;;;;;20.82;63.67;99281.91;340809;29;1515;-79
2022/09/15 00:06:52;;;;;;;838.22;783.92;;;;;;;20.81;63.26;99275.75;339511;28;1258;-79
2022/09/15 00:07:03;;;;;;;834.47;780.23;;;;;;;20.82;63.74;99285.41;339220;28;1216;-79
2022/09/15 00:07:13;;;;;;;828.87;774.50;;;;;;;20.81;63.49;99278.41;335556;29;1229;-79
2022/09/15 00:07:24;;;;;;;826.13;771.80;;;;;;;20.82;63.65;99277.44;338766;29;1365;-79
2022/09/15 00:07:34;;;;;;;828.30;774.07;;;;;;;20.84;63.68;99275.47;338425;29;1365;-79
2022/09/15 00:07:45;;;;;;;831.03;777.00;;;;;;;20.82;63.72;99272.13;334665;29;1243;-79
2022/09/15 00:07:55;;;;;;;835.17;781.20;;;;;;;20.84;63.58;99279.97;334216;29;1712;-79
2022/09/15 00:08:05;;;;;;;836.20;782.13;;;;;;;20.82;63.48;99280.09;334981;29;1901;-79
2022/09/15 00:08:16;;;;;;;837.67;783.43;;;;;;;20.81;63.66;99280.22;332065;29;1228;-79
2022/09/15 00:08:26;;;;;;;840.60;786.35;;;;;;;20.82;63.57;99281.91;338175;29;1271;-79
2022/09/15 00:08:37;;;;;;;837.30;783.40;;;;;;;20.82;63.55;99274.78;338042;29;1332;-79
2022/09/15 00:08:48;;;;;;;838.30;784.08;;;;;;;20.82;63.48;99280.09;338428;29;1248;-80
2022/09/15 00:08:58;;;;;;;835.17;780.95;;;;;;;20.84;63.66;99274.63;334311;29;1195;-80
2022/09/15 00:09:08;;;;;;;835.73;781.17;;;;;;;20.81;64.14;99270.44;336013;29;1438;-80
2022/09/15 00:09:19;;;;;;;839.92;785.10;;;;;;;20.82;63.98;99277.44;333668;29;1833;-80
2022/09/15 00:09:30;;;;;;;838.17;783.27;;;;;;;20.80;63.60;99271.41;331958;29;1133;-80
2022/09/15 00:09:40;;;;;;;837.28;782.40;;;;;;;20.78;63.89;99278.72;329377;29;1852;-80
2022/09/15 00:09:50;;;;;;;835.03;780.67;;;;;;;20.78;63.95;99276.06;327301;29;1943;-80
2022/09/15 00:10:02;;;;;;;839.38;785.03;;;;;;;20.78;63.90;99275.22;325471;29;2257;-80
2022/09/15 00:10:12;;;;;;;841.83;787.55;;;;;;;20.77;63.84;99273.53;329124;30;1472;-80
2022/09/15 00:10:23;;;;;;;838.72;784.53;;;;;;;20.78;63.81;99269.88;327569;30;1636;-80
2022/09/15 00:10:33;;;;;;;844.23;789.73;;;;;;;20.78;63.79;99272.56;328833;29;1292;-80
2022/09/15 00:11:01;;;;;;;839.97;785.60;;;;;;;20.78;64.06;99276.06;327204;30;1258;-80
2022/09/15 00:11:22;;;;;;;835.50;781.63;;;;;;;20.78;64.08;99276.06;325778;30;1647;-80
2022/09/15 00:11:33;;;;;;;847.13;792.90;;;;;;;20.74;64.25;99276.44;320534;30;2332;-80
2022/09/15 00:11:44;;;;;;;847.83;793.53;;;;;;;20.70;64.20;99278.53;316121;31;1533;-80
2022/09/15 00:11:54;;;;;;;849.33;794.63;;;;;;;20.71;64.34;99274.91;316641;30;2301;-80
2022/09/15 00:12:05;;;;;;;853.40;798.53;;;;;;;20.69;63.93;99282.19;315007;30;2558;-80
2022/09/15 00:12:15;;;;;;;851.40;796.20;;;;;;;20.70;63.94;99280.34;317486;31;1413;-80
2022/09/15 00:12:26;;;;;;;847.83;792.83;;;;;;;20.70;64.31;99280.34;313801;31;1283;-80
2022/09/15 00:12:37;;;;;;;843.95;789.17;;;;;;;20.69;64.29;99271.53;313256;31;1973;-80
2022/09/15 00:12:47;;;;;;;844.50;789.97;;;;;;;20.70;64.10;99272.38;311098;31;1507;-80
2022/09/15 00:12:58;;;;;;;849.80;795.13;;;;;;;20.71;64.09;99274.91;313468;31;1280;-80
2022/09/15 00:13:08;;;;;;;849.08;794.40;;;;;;;20.72;64.17;99281.91;313697;31;2156;-80
2022/09/15 00:13:19;;;;;;;847.23;792.63;;;;;;;20.69;64.10;99274.19;312259;31;2481;-80
2022/09/15 00:13:30;;;;;;;846.00;791.25;;;;;;;20.71;64.35;99280.22;308621;32;1245;-80
2022/09/15 00:13:40;;;;;;;848.08;793.17;;;;;;;20.73;63.85;99277.44;311621;31;2529;-80
2022/09/15 00:13:51;;;;;;;850.17;795.27;;;;;;;20.73;64.17;99278.28;310097;31;3396;-80
2022/09/15 00:14:03;;;;;;;852.05;797.33;;;;;;;20.73;64.29;99275.63;307963;31;2918;-80
2022/09/15 00:14:14;;;;;;;854.35;799.78;;;;;;;20.74;64.22;99274.63;308435;32;948;-80
2022/09/15 00:14:24;;;;;;;856.17;801.63;;;;;;;20.74;63.93;99265.81;306693;32;3406;-80
2022/09/15 00:14:34;;;;;;;853.27;798.73;;;;;;;20.72;63.49;99281.91;307011;31;3182;-80
2022/09/15 00:14:45;;;;;;;851.20;796.63;;;;;;;20.72;63.58;99271.28;308598;32;1356;-80
2022/09/15 00:14:56;;;;;;;850.60;795.80;;;;;;;20.74;63.61;99277.28;309626;31;2424;-80
2022/09/15 00:15:06;;;;;;;843.75;789.25;;;;;;;20.74;63.63;99274.63;309457;31;2265;-80
2022/09/15 00:15:17;;;;;;;845.80;791.40;;;;;;;20.75;63.83;99275.47;305818;31;2540;-80
2022/09/15 00:15:27;;;;;;;843.28;789.08;;;;;;;20.74;63.69;99277.28;305267;32;1260;-80
2022/09/15 00:15:38;;;;;;;844.50;790.08;;;;;;;20.74;63.55;99269.31;302299;32;3311;-80
2022/09/15 00:15:48;;;;;;;845.73;791.03;;;;;;;20.75;63.29;99268.34;300297;32;3686;-80
2022/09/15 00:15:59;;;;;;;844.78;790.17;;;;;;;20.75;63.55;99272.81;303331;32;1256;-80
2022/09/15 00:16:10;;;;;;;851.23;796.40;;;;;;;20.75;63.32;99271.00;297615;32;4680;-80
2022/09/15 00:16:21;;;;;;;850.60;796.00;;;;;;;20.72;63.37;99271.28;295547;32;3862;-80
2022/09/15 00:16:32;;;;;;;847.45;793.03;;;;;;;20.71;63.49;99274.91;295551;33;4076;-80
2022/09/15 00:16:42;;;;;;;840.97;786.80;;;;;;;20.71;63.48;99272.25;292364;33;1222;-80
2022/09/15 00:16:54;;;;;;;841.92;787.63;;;;;;;20.68;63.83;99269.84;295034;33;3998;-80
2022/09/15 00:17:04;;;;;;;842.60;788.28;;;;;;;20.63;63.82;99277.41;296645;33;2794;-80
2022/09/15 00:17:15;;;;;;;842.90;788.15;;;;;;;20.63;63.78;99277.41;295956;33;1417;-79
2022/09/15 00:17:25;;;;;;;838.53;783.80;;;;;;;20.62;63.81;99267.72;292154;33;3874;-79
2022/09/15 00:17:36;;;;;;;837.45;782.75;;;;;;;20.61;63.86;99274.03;291015;33;4319;-79
2022/09/15 00:17:50;;;;;;;835.03;780.70;;;;;;;20.59;64.00;99271.50;288508;33;4785;-79
2022/09/15 00:18:02;;;;;;;837.72;783.55;;;;;;;20.59;64.12;99276.81;285737;34;1295;-79
2022/09/15 00:18:12;;;;;;;844.63;790.28;;;;;;;20.60;63.99;99267.03;284664;34;830;-79
2022/09/15 00:18:23;;;;;;;848.67;794.20;;;;;;;20.62;63.83;99269.53;287543;33;6467;-79
2022/09/15 00:18:33;;;;;;;852.60;797.97;;;;;;;20.60;63.88;99269.69;287098;33;6529;-79
2022/09/15 00:18:44;;;;;;;854.65;799.78;;;;;;;20.58;63.73;99274.28;288565;34;1232;-79
2022/09/15 00:18:55;;;;;;;849.33;794.50;;;;;;;20.59;63.96;99271.50;289744;34;5698;-79
2022/09/15 00:19:05;;;;;;;848.53;793.60;;;;;;;20.61;63.96;99274.03;286831;34;5378;-79
2022/09/15 00:19:16;;;;;;;852.17;797.10;;;;;;;20.61;63.76;99268.72;285195;34;4094;-79
2022/09/15 00:19:26;;;;;;;849.70;794.67;;;;;;;20.64;63.90;99267.59;283411;34;1169;-79
2022/09/15 00:19:37;;;;;;;850.20;795.13;;;;;;;20.65;63.89;99271.94;279598;35;5809;-79
2022/09/15 00:21:17;;;;;;;768.87;717.09;;;;;;;20.66;63.81;99271.81;2500159;27;20276;-79
2022/09/15 00:21:30;;;;;;;840.33;786.50;;;;;;;20.65;63.55;99264.81;352127;28;1236;-79
2022/09/15 00:21:41;;;;;;;846.55;792.55;;;;;;;20.65;63.55;99269.28;349256;28;875;-79
2022/09/15 00:21:52;;;;;;;845.75;791.65;;;;;;;20.63;63.39;99272.06;347719;28;1400;-79
2022/09/15 00:22:02;;;;;;;844.20;789.90;;;;;;;20.63;63.38;99272.06;348666;28;1311;-79
2022/09/15 00:22:12;;;;;;;844.38;789.90;;;;;;;20.62;63.23;99270.38;350375;28;1230;-79
2022/09/15 00:22:24;;;;;;;847.80;793.17;;;;;;;20.62;63.50;99270.38;347592;28;1125;-79
2022/09/15 00:22:34;;;;;;;837.13;782.88;;;;;;;20.63;63.20;99274.72;349046;28;1417;-79
2022/09/15 00:22:45;;;;;;;834.58;780.35;;;;;;;20.65;63.16;99278.09;350171;28;1323;-79
2022/09/15 00:22:56;;;;;;;836.85;782.53;;;;;;;20.63;63.34;99261.44;347616;28;1296;-80
2022/09/15 00:23:07;;;;;;;840.45;786.17;;;;;;;20.65;63.19;99266.63;347754;28;1247;-79
2022/09/15 00:23:17;;;;;;;839.20;784.88;;;;;;;20.65;63.69;99267.47;349692;28;1326;-80
2022/09/15 00:23:28;;;;;;;833.13;779.07;;;;;;;20.65;63.63;99259.47;349905;28;1238;-79
2022/09/15 00:23:38;;;;;;;835.83;781.47;;;;;;;20.63;63.90;99266.75;348823;28;1557;-79
2022/09/15 00:23:49;;;;;;;837.30;783.05;;;;;;;20.62;63.53;99266.88;351950;28;1386;-79
2022/09/15 00:24:00;;;;;;;841.40;786.97;;;;;;;20.63;64.08;99256.13;347590;28;1212;-79
2022/09/15 00:24:10;;;;;;;842.28;787.90;;;;;;;20.61;64.02;99268.72;350328;28;1197;-79
2022/09/15 00:24:20;;;;;;;844.37;789.90;;;;;;;20.47;63.86;99259.28;350562;28;1278;-79
2022/09/15 00:24:31;;;;;;;843.77;789.03;;;;;;;20.36;64.36;99263.84;349013;28;922;-79
2022/09/15 00:24:42;;;;;;;842.92;787.95;;;;;;;20.33;64.00;99258.78;347792;28;1226;-79
2022/09/15 00:24:52;;;;;;;840.58;785.72;;;;;;;20.24;64.40;99261.25;347365;28;1276;-79
2022/09/15 00:25:03;;;;;;;848.43;793.83;;;;;;;20.16;65.11;99261.06;347527;28;1275;-79
2022/09/15 00:25:14;;;;;;;854.90;800.28;;;;;;;20.15;64.90;99251.41;346050;28;1373;-79
2022/09/15 00:25:24;;;;;;;860.10;805.30;;;;;;;20.09;65.18;99259.91;347593;28;1354;-80
2022/09/15 00:25:40;;;;;;;859.47;804.63;;;;;;;20.09;65.53;99262.56;347343;28;1458;-79
2022/09/15 00:25:51;;;;;;;852.58;797.97;;;;;;;20.10;65.55;99263.41;342957;28;1369;-79
2022/09/15 00:26:07;;;;;;;858.70;803.92;;;;;;;20.09;65.44;99259.91;341970;28;1102;-79
2022/09/15 00:26:20;;;;;;;867.60;812.28;;;;;;;20.11;65.24;99260.63;339394;29;5313;-79
2022/09/15 00:26:30;;;;;;;871.72;816.22;;;;;;;20.15;65.15;99262.03;342172;28;886;-79
2022/09/15 00:26:41;;;;;;;875.88;820.45;;;;;;;20.18;65.29;99260.94;341000;28;1503;-79
2022/09/15 00:26:51;;;;;;;875.77;820.10;;;;;;;20.23;65.18;99264.06;341363;28;1392;-79
2022/09/15 00:27:02;;;;;;;869.13;813.88;;;;;;;20.26;64.83;99267.28;342380;28;1198;-79
2022/09/15 00:27:12;;;;;;;872.17;816.83;;;;;;;20.28;64.91;99261.84;344401;28;1467;-80
2022/09/15 00:27:23;;;;;;;880.60;825.22;;;;;;;20.27;64.79;99266.31;341415;28;1226;-79
2022/09/15 00:27:33;;;;;;;887.53;831.87;;;;;;;20.30;64.96;99267.88;344554;28;1391;-79
2022/09/15 00:27:44;;;;;;;884.15;828.70;;;;;;;20.31;64.70;99260.72;343716;28;1237;-79
2022/09/15 00:27:54;;;;;;;876.07;820.70;;;;;;;20.34;64.53;99256.00;341979;28;1265;-79
2022/09/15 00:28:05;;;;;;;874.40;819.13;;;;;;;20.34;64.60;99265.78;342176;28;1003;-79
2022/09/15 00:28:17;;;;;;;875.37;820.00;;;;;;;20.37;64.78;99261.00;340978;28;1262;-80
2022/09/15 00:28:27;;;;;;;879.03;823.60;;;;;;;20.37;64.50;99262.81;341116;28;1063;-79
2022/09/15 00:28:39;;;;;;;879.10;823.78;;;;;;;20.36;64.44;99261.97;344752;28;1256;-79
2022/09/15 00:28:50;;;;;;;871.83;816.83;;;;;;;20.36;64.63;99266.50;341286;28;1450;-79
2022/09/15 00:29:00;;;;;;;874.87;819.90;;;;;;;20.39;64.87;99260.91;339926;29;1434;-79
2022/09/15 00:29:11;;;;;;;879.95;824.75;;;;;;;20.41;64.29;99261.63;338261;29;1253;-79
2022/09/15 00:29:21;;;;;;;886.30;830.87;;;;;;;20.41;64.51;99256.31;338876;29;1280;-79
2022/09/15 00:29:32;;;;;;;883.05;827.65;;;;;;;20.41;64.33;99261.63;336042;29;1215;-79
2022/09/15 00:29:42;;;;;;;883.33;827.73;;;;;;;20.41;64.63;99261.63;337292;29;1238;-79
2022/09/15 00:29:53;;;;;;;883.80;828.22;;;;;;;20.40;64.59;99260.78;336838;29;1374;-79
2022/09/15 00:30:04;;;;;;;885.33;829.73;;;;;;;20.44;64.47;99258.69;336853;29;1899;-79
2022/09/15 00:30:14;;;;;;;880.00;824.65;;;;;;;20.44;64.31;99258.69;335301;29;1276;-79
2022/09/15 00:30:25;;;;;;;883.17;827.83;;;;;;;20.45;64.54;99263.03;334311;29;1231;-79
2022/09/15 00:30:39;;;;;;;887.05;831.63;;;;;;;20.44;64.37;99261.34;331100;29;1540;-79
2022/09/15 00:30:51;;;;;;;885.78;830.30;;;;;;;20.45;64.57;99265.69;330592;29;1314;-79
2022/09/15 00:31:04;;;;;;;878.65;823.35;;;;;;;20.45;64.60;99255.06;328213;29;1764;-79
2022/09/15 00:31:18;;;;;;;868.05;813.10;;;;;;;20.44;64.41;99264.84;331371;29;1991;-79
2022/09/15 00:31:29;;;;;;;868.60;813.78;;;;;;;20.46;64.67;99270.88;329250;30;1428;-79
2022/09/15 00:31:39;;;;;;;875.50;820.38;;;;;;;20.45;64.48;99269.19;327234;30;1461;-79
2022/09/15 00:31:50;;;;;;;883.08;827.63;;;;;;;20.43;64.13;99265.00;327927;29;1691;-79
2022/09/15 00:32:01;;;;;;;885.03;829.23;;;;;;;20.46;63.98;99265.56;325201;30;2131;-79
2022/09/15 00:32:11;;;;;;;876.75;821.15;;;;;;;20.47;64.17;99271.72;323889;30;1364;-79
2022/09/15 00:32:21;;;;;;;875.20;819.50;;;;;;;20.47;64.28;99263.75;325098;30;1672;-79
2022/09/15 00:32:32;;;;;;;874.20;818.70;;;;;;;20.48;64.17;99268.09;325692;30;1163;-79
2022/09/15 00:32:42;;;;;;;879.33;823.60;;;;;;;20.45;64.37;99265.69;326362;30;1209;-79
2022/09/15 00:32:53;;;;;;;882.10;826.55;;;;;;;20.48;64.31;99268.09;323079;30;1271;-78
2022/09/15 00:33:03;;;;;;;882.70;826.87;;;;;;;20.47;64.53;99266.41;321881;30;1982;-78
2022/09/15 00:33:14;;;;;;;876.90;821.35;;;;;;;20.49;64.50;99264.47;321120;30;1481;-78
2022/09/15 00:33:25;;;;;;;873.70;818.10;;;;;;;20.50;64.06;99260.81;327703;30;2407;-79
2022/09/15 00:33:35;;;;;;;875.20;819.77;;;;;;;20.50;64.82;99260.81;324193;30;2331;-79
2022/09/15 00:33:46;;;;;;;873.40;818.08;;;;;;;20.51;64.34;99267.81;316995;30;2034;-79
2022/09/15 00:34:01;;;;;;;871.83;816.72;;;;;;;20.51;64.28;99258.03;319974;30;862;-79
2022/09/15 00:34:12;;;;;;;872.50;817.45;;;;;;;20.51;64.48;99262.50;317105;31;1341;-79
2022/09/15 00:34:22;;;;;;;870.35;815.30;;;;;;;20.50;64.53;99266.13;317598;30;2564;-79
2022/09/15 00:34:33;;;;;;;869.17;814.00;;;;;;;20.49;64.46;99259.13;316587;31;1679;-79
2022/09/15 00:34:44;;;;;;;875.78;820.42;;;;;;;20.50;64.50;99271.47;314069;31;1237;-79
2022/09/15 00:34:54;;;;;;;877.57;822.13;;;;;;;20.49;64.32;99261.81;313865;31;1447;-79
2022/09/15 00:35:04;;;;;;;878.75;823.30;;;;;;;20.49;64.52;99261.81;315419;31;2004;-79
2022/09/15 00:35:15;;;;;;;875.53;820.10;;;;;;;20.49;64.57;99264.47;312161;31;2599;-79
2022/09/15 00:35:25;;;;;;;876.53;821.20;;;;;;;20.50;64.11;99269.63;306470;32;1251;-79
2022/09/15 00:35:40;;;;;;;870.17;814.93;;;;;;;20.49;64.64;99264.47;308164;31;2877;-79
2022/09/15 00:35:52;;;;;;;870.92;815.67;;;;;;;20.48;64.59;99262.78;305405;32;4981;-79
2022/09/15 00:36:05;;;;;;;869.00;813.65;;;;;;;20.52;64.76;99265.03;300090;32;2863;-79
2022/09/15 00:36:16;;;;;;;870.92;815.28;;;;;;;20.52;64.42;99269.50;298971;32;3324;-79
2022/09/15 00:36:26;;;;;;;875.40;819.75;;;;;;;20.52;64.32;99262.38;302516;32;1246;-79
2022/09/15 00:36:37;;;;;;;870.33;815.00;;;;;;;20.51;64.51;99265.16;302538;32;3006;-79
2022/09/15 00:36:47;;;;;;;866.33;811.42;;;;;;;20.51;64.50;99270.47;301257;32;2517;-79
2022/09/15 00:36:58;;;;;;;853.60;799.17;;;;;;;20.50;64.55;99266.13;299902;32;1238;-79
2022/09/15 00:37:08;;;;;;;859.50;804.85;;;;;;;20.51;64.38;99262.50;301191;32;2146;-79
2022/09/15 00:37:18;;;;;;;860.10;805.17;;;;;;;20.51;64.46;99267.81;299189;32;2909;-79
2022/09/15 00:37:29;;;;;;;862.05;806.92;;;;;;;20.50;64.21;99266.13;299150;33;1475;-79
2022/09/15 00:37:39;;;;;;;870.83;815.17;;;;;;;20.50;64.29;99271.47;294054;33;3311;-79
2022/09/15 00:37:50;;;;;;;873.13;817.38;;;;;;;20.50;64.03;99266.13;292449;33;4116;-79
2022/09/15 00:38:00;;;;;;;872.20;816.23;;;;;;;20.48;64.24;99262.78;290096;33;4533;-79
2022/09/15 00:38:11;;;;;;;863.23;807.67;;;;;;;20.47;64.37;99264.59;286493;34;1193;-79
2022/09/15 00:38:21;;;;;;;860.85;805.53;;;;;;;20.48;63.87;99260.13;289625;33;5296;-79
2022/09/15 00:38:32;;;;;;;868.55;812.97;;;;;;;20.49;64.06;99272.44;289075;33;4171;-79
2022/09/15 00:38:43;;;;;;;873.63;817.67;;;;;;;20.48;64.25;99262.78;288384;34;3118;-79
2022/09/15 00:38:54;;;;;;;873.45;817.60;;;;;;;20.49;64.35;99267.13;292009;33;3901;-79
2022/09/15 00:39:04;;;;;;;874.97;819.27;;;;;;;20.47;64.18;99267.25;289203;34;3163;-79
2022/09/15 00:39:14;;;;;;;872.13;816.67;;;;;;;20.48;64.68;99260.13;284944;34;1347;-79
2022/09/15 00:39:25;;;;;;;871.33;815.87;;;;;;;20.47;64.65;99261.09;280216;35;1479;-79
2022/09/15 00:39:38;;;;;;;866.72;811.17;;;;;;;20.45;64.46;99257.72;281275;34;6542;-80
2022/09/15 00:39:49;;;;;;;866.63;810.92;;;;;;;20.49;64.66;99253.81;278004;35;5149;-81
2022/09/15 00:39:59;;;;;;;873.78;817.90;;;;;;;20.49;64.48;99253.81;277420;35;1111;-81
2022/09/15 00:40:10;;;;;;;876.30;820.70;;;;;;;20.50;64.63;99266.13;277700;35;5942;-79
2022/09/15 00:40:20;;;;;;;872.20;816.88;;;;;;;20.51;64.65;99257.19;270431;36;7300;-78
2022/09/15 00:40:31;;;;;;;866.33;811.27;;;;;;;20.51;64.43;99257.19;266117;36;7334;-78
2022/09/15 00:40:49;;;;;;;868.20;813.10;;;;;;;20.51;64.81;99259.84;267402;37;938;-79
2022/09/15 00:41:00;;;;;;;864.33;809.65;;;;;;;20.49;64.86;99259.13;265718;37;1385;-79
2022/09/15 00:41:12;;;;;;;858.55;804.17;;;;;;;20.49;64.69;99259.13;258662;38;1243;-78
2022/09/15 00:41:22;;;;;;;857.33;802.83;;;;;;;20.48;64.91;99258.28;259142;37;4421;-78
2022/09/15 00:41:33;;;;;;;857.63;803.13;;;;;;;20.50;64.86;99258.16;258953;37;6639;-78
2022/09/15 00:41:43;;;;;;;855.67;801.00;;;;;;;20.51;64.95;99257.19;257656;38;1416;-78
2022/09/15 00:43:57;;;;;;;784.14;732.23;;;;;;;20.47;64.94;99261.94;2496215;27;20485;-79
2022/09/15 00:44:22;;;;;;;860.22;806.47;;;;;;;20.46;65.05;99249.63;351671;28;1444;-80
2022/09/15 00:44:35;;;;;;;854.67;800.83;;;;;;;20.45;64.73;99252.41;350403;28;952;-80
2022/09/15 00:44:47;;;;;;;860.20;806.22;;;;;;;20.44;64.82;99250.72;350466;28;953;-79
2022/09/15 00:44:59;;;;;;;858.47;804.38;;;;;;;20.43;64.42;99251.69;348858;28;1273;-79
2022/09/15 00:45:13;;;;;;;863.78;809.47;;;;;;;20.43;64.61;99255.19;349456;28;1228;-79
2022/09/15 00:45:24;;;;;;;860.34;805.88;;;;;;;20.44;64.27;99254.22;348922;28;1424;-79
2022/09/15 00:45:35;;;;;;;859.83;805.40;;;;;;;20.44;64.12;99253.38;344936;28;921;-79
2022/09/15 00:45:45;;;;;;;856.83;802.58;;;;;;;20.45;64.29;99263.03;345944;28;1474;-79
2022/09/15 00:45:56;;;;;;;861.72;807.20;;;;;;;20.43;63.81;99249.03;344755;28;1253;-79
2022/09/15 00:46:06;;;;;;;864.13;809.57;;;;;;;20.44;64.21;99258.69;346238;28;1327;-79
2022/09/15 00:46:33;;;;;;;859.92;805.50;;;;;;;20.44;64.06;99250.72;345767;28;1392;-79
2022/09/15 00:46:45;;;;;;;857.63;803.53;;;;;;;20.42;64.21;99256.16;343238;28;4793;-79
2022/09/15 00:46:56;;;;;;;864.03;809.60;;;;;;;20.43;64.08;99252.53;340854;29;1569;-79
2022/09/15 00:47:07;;;;;;;861.20;806.70;;;;;;;20.43;64.05;99252.53;348555;28;1400;-79
2022/09/15 00:47:18;;;;;;;859.70;804.97;;;;;;;20.43;64.24;99252.53;348406;28;1227;-79
2022/09/15 00:47:32;;;;;;;850.65;796.05;;;;;;;20.44;64.10;99258.69;344311;28;1599;-79
2022/09/15 00:47:43;;;;;;;848.45;794.15;;;;;;;20.44;64.27;99256.88;347327;28;5633;-78
2022/09/15 00:47:53;;;;;;;840.42;786.63;;;;;;;20.46;64.41;99251.44;349111;28;762;-78
2022/09/15 00:48:04;;;;;;;842.73;788.77;;;;;;;20.45;63.86;99252.41;347016;28;1320;-78
2022/09/15 00:48:20;;;;;;;847.80;793.60;;;;;;;20.45;64.11;99255.06;346058;28;1496;-80
2022/09/15 00:48:31;;;;;;;847.80;793.63;;;;;;;20.45;64.29;99252.41;346199;28;999;-79
2022/09/15 00:49:13;;;;;;;849.47;795.05;;;;;;;20.44;64.27;99251.56;342082;28;904;-80
2022/09/15 00:49:26;;;;;;;850.92;796.80;;;;;;;20.45;64.03;99255.06;337868;29;1329;-80
2022/09/15 00:49:37;;;;;;;842.78;788.90;;;;;;;20.45;64.22;99252.41;338443;29;877;-79
2022/09/15 00:49:50;;;;;;;839.87;786.13;;;;;;;20.44;63.93;99254.22;340556;29;1357;-79
2022/09/15 00:50:15;;;;;;;843.80;789.83;;;;;;;20.44;64.34;99250.72;340674;28;1337;-79
2022/09/15 00:50:26;;;;;;;842.25;788.55;;;;;;;20.43;64.31;99254.34;336827;29;4837;-79
2022/09/15 00:50:36;;;;;;;842.27;788.47;;;;;;;20.42;64.51;99255.31;338222;29;1349;-79
2022/09/15 00:50:50;;;;;;;846.58;792.55;;;;;;;20.42;64.38;99258.00;340346;28;1504;-81
2022/09/15 00:51:01;;;;;;;850.72;796.67;;;;;;;20.42;64.24;99258.00;338028;29;5402;-79
2022/09/15 00:51:13;;;;;;;844.27;790.33;;;;;;;20.42;64.40;99252.66;338109;29;1036;-79
2022/09/15 00:51:29;;;;;;;841.17;787.05;;;;;;;20.41;64.46;99254.50;336835;29;5167;-78
2022/09/15 00:51:47;;;;;;;845.10;790.92;;;;;;;20.42;64.21;99250.00;336855;29;1389;-78
2022/09/15 00:52:10;;;;;;;845.55;791.60;;;;;;;20.43;63.92;99252.53;339134;29;5237;-79
2022/09/15 00:52:48;;;;;;;843.88;790.20;;;;;;;20.44;63.74;99256.03;335803;29;1567;-79
2022/09/15 00:53:00;;;;;;;845.80;791.80;;;;;;;20.41;64.06;99251.00;332283;29;5407;-79
2022/09/15 00:53:11;;;;;;;835.53;781.78;;;;;;;20.41;63.99;99254.50;334274;29;1298;-79
2022/09/15 00:53:22;;;;;;;833.35;779.65;;;;;;;20.41;63.86;99251.00;331751;29;1340;-79
2022/09/15 00:53:33;;;;;;;838.50;784.58;;;;;;;20.44;64.05;99253.38;334431;29;1517;-79
2022/09/15 00:53:43;;;;;;;835.60;781.65;;;;;;;20.43;63.97;99249.03;330933;29;1579;-79
2022/09/15 00:53:54;;;;;;;837.80;783.60;;;;;;;20.40;64.26;99244.84;323479;30;1180;-79
2022/09/15 00:54:06;;;;;;;833.20;779.25;;;;;;;20.42;64.34;99250.00;329407;29;2031;-79
2022/09/15 00:54:33;;;;;;;828.15;774.45;;;;;;;20.38;64.12;99251.25;327415;30;5432;-79
2022/09/15 00:55:05;;;;;;;813.15;759.72;;;;;;;20.36;63.87;99254.00;322599;30;4850;-79
2022/09/15 00:55:32;;;;;;;808.45;755.28;;;;;;;20.36;64.28;99246.03;323178;30;1348;-80
2022/09/15 00:55:47;;;;;;;824.85;771.55;;;;;;;20.36;64.26;99254.00;319945;30;5252;-78
2022/09/15 00:55:58;;;;;;;823.30;769.63;;;;;;;20.36;64.05;99242.56;313407;31;2358;-78
2022/09/15 00:56:08;;;;;;;833.50;779.25;;;;;;;20.36;63.83;99248.69;312927;31;1292;-78
2022/09/15 00:56:19;;;;;;;846.78;792.30;;;;;;;20.37;63.95;99249.53;315290;31;2561;-78
2022/09/15 00:56:30;;;;;;;845.67;791.20;;;;;;;20.36;63.83;99247.88;314632;30;2399;-78
2022/09/15 00:56:41;;;;;;;838.45;784.25;;;;;;;20.37;64.12;99252.19;314178;31;1056;-78
2022/09/15 00:56:52;;;;;;;833.37;779.33;;;;;;;20.35;64.35;99254.19;315145;31;1209;-78
2022/09/15 00:57:06;;;;;;;827.92;774.15;;;;;;;20.34;64.31;99252.50;316646;31;1386;-78
2022/09/15 00:57:23;;;;;;;827.25;773.70;;;;;;;20.37;63.97;99252.19;314849;31;4658;-78
2022/09/15 00:57:42;;;;;;;837.60;783.58;;;;;;;20.36;63.85;99251.34;313575;31;5714;-78